sensor_id;sensor_type;location;lat;lon;timestamp;pressure;altitude;pressure_sealevel;temperature;humidity
67377;BME280;54261;46.086;6.588;2023-02-14T00:02:16;94116.81;;;5.16;32.28
67377;BME280;54261;46.086;6.588;2023-02-14T00:07:17;94119.06;;;4.73;32.31
67377;BME280;54261;46.086;6.588;2023-02-14T00:12:19;94110.16;;;5.19;32.17
67377;BME280;54261;46.086;6.588;2023-02-14T00:17:21;94116.94;;;5.44;32.26
67377;BME280;54261;46.086;6.588;2023-02-14T00:22:23;94103.72;;;5.49;31.36
67377;BME280;54261;46.086;6.588;2023-02-14T00:27:25;94103.72;;;5.32;32.00
67377;BME280;54261;46.086;6.588;2023-02-14T00:32:30;94103.72;;;5.49;31.78
67377;BME280;54261;46.086;6.588;2023-02-14T00:37:32;94109.66;;;5.39;31.93
67377;BME280;54261;46.086;6.588;2023-02-14T00:42:34;94093.69;;;5.39;31.66
67377;BME280;54261;46.086;6.588;2023-02-14T00:47:36;94090.28;;;3.83;34.01
67377;BME280;54261;46.086;6.588;2023-02-14T00:52:37;94093.19;;;4.86;33.78
67377;BME280;54261;46.086;6.588;2023-02-14T00:57:39;94096.31;;;5.17;33.07
67377;BME280;54261;46.086;6.588;2023-02-14T01:02:41;94074.47;;;4.63;32.75
67377;BME280;54261;46.086;6.588;2023-02-14T01:07:43;94085.44;;;4.67;32.63
67377;BME280;54261;46.086;6.588;2023-02-14T01:12:44;94107.94;;;4.59;33.31
67377;BME280;54261;46.086;6.588;2023-02-14T01:17:46;94104.84;;;4.67;33.52
67377;BME280;54261;46.086;6.588;2023-02-14T01:22:48;94090.34;;;4.12;33.37
67377;BME280;54261;46.086;6.588;2023-02-14T01:27:50;94094.69;;;4.47;33.70
67377;BME280;54261;46.086;6.588;2023-02-14T01:32:52;94072.28;;;4.43;33.32
67377;BME280;54261;46.086;6.588;2023-02-14T01:37:54;94091.66;;;4.73;33.43
67377;BME280;54261;46.086;6.588;2023-02-14T01:42:56;94094.88;;;4.92;33.33
67377;BME280;54261;46.086;6.588;2023-02-14T01:47:58;94088.88;;;4.50;33.64
67377;BME280;54261;46.086;6.588;2023-02-14T01:53:05;94083.69;;;4.26;34.32
67377;BME280;54261;46.086;6.588;2023-02-14T01:58:14;94077.69;;;4.48;33.70
67377;BME280;54261;46.086;6.588;2023-02-14T02:03:23;94068.50;;;4.39;33.59
67377;BME280;54261;46.086;6.588;2023-02-14T02:08:27;94050.91;;;4.21;33.82
67377;BME280;54261;46.086;6.588;2023-02-14T02:13:29;94069.88;;;4.59;33.80
67377;BME280;54261;46.086;6.588;2023-02-14T02:23:50;94073.91;;;4.78;33.14
67377;BME280;54261;46.086;6.588;2023-02-14T02:44:43;94056.22;;;4.21;33.60
67377;BME280;54261;46.086;6.588;2023-02-14T03:01:15;94034.69;;;3.93;33.79
67377;BME280;54261;46.086;6.588;2023-02-14T03:06:18;94017.63;;;3.48;34.12
67377;BME280;54261;46.086;6.588;2023-02-14T03:11:19;94047.22;;;3.81;34.93
67377;BME280;54261;46.086;6.588;2023-02-14T03:16:33;94050.16;;;4.08;34.80
67377;BME280;54261;46.086;6.588;2023-02-14T03:27:00;94044.22;;;3.77;34.84
67377;BME280;54261;46.086;6.588;2023-02-14T03:37:27;94047.81;;;2.94;36.12
67377;BME280;54261;46.086;6.588;2023-02-14T03:42:55;94055.94;;;3.64;36.15
67377;BME280;54261;46.086;6.588;2023-02-14T03:48:02;94049.94;;;3.98;35.49
67377;BME280;54261;46.086;6.588;2023-02-14T03:53:07;94058.72;;;3.98;34.59
67377;BME280;54261;46.086;6.588;2023-02-14T03:58:21;94031.38;;;3.57;34.51
67377;BME280;54261;46.086;6.588;2023-02-14T04:03:26;94057.44;;;4.30;33.87
67377;BME280;54261;46.086;6.588;2023-02-14T04:08:29;94043.00;;;4.26;33.40
67377;BME280;54261;46.086;6.588;2023-02-14T04:13:31;94041.31;;;4.37;32.83
67377;BME280;54261;46.086;6.588;2023-02-14T04:18:33;94021.59;;;3.46;33.70
67377;BME280;54261;46.086;6.588;2023-02-14T04:23:54;94032.16;;;4.27;33.22
67377;BME280;54261;46.086;6.588;2023-02-14T04:28:55;94015.16;;;3.99;32.83
67377;BME280;54261;46.086;6.588;2023-02-14T04:33:57;94004.19;;;3.96;33.18
67377;BME280;54261;46.086;6.588;2023-02-14T04:38:59;94029.75;;;4.43;32.87
67377;BME280;54261;46.086;6.588;2023-02-14T04:44:00;94013.59;;;4.16;33.00
67377;BME280;54261;46.086;6.588;2023-02-14T04:49:02;94038.22;;;4.40;33.31
67377;BME280;54261;46.086;6.588;2023-02-14T04:54:04;94039.13;;;4.17;33.01
67377;BME280;54261;46.086;6.588;2023-02-14T04:59:07;94032.69;;;4.12;33.56
67377;BME280;54261;46.086;6.588;2023-02-14T05:04:09;94024.16;;;3.69;33.00
67377;BME280;54261;46.086;6.588;2023-02-14T05:09:11;94038.53;;;3.56;34.41
67377;BME280;54261;46.086;6.588;2023-02-14T05:14:12;94025.16;;;3.39;34.29
67377;BME280;54261;46.086;6.588;2023-02-14T05:19:14;94025.03;;;3.87;33.69
67377;BME280;54261;46.086;6.588;2023-02-14T05:24:16;93987.25;;;3.15;34.68
67377;BME280;54261;46.086;6.588;2023-02-14T05:29:18;94027.69;;;3.87;33.83
67377;BME280;54261;46.086;6.588;2023-02-14T05:34:20;94035.81;;;3.27;34.51
67377;BME280;54261;46.086;6.588;2023-02-14T05:39:22;94028.31;;;3.12;33.94
67377;BME280;54261;46.086;6.588;2023-02-14T05:44:24;94031.47;;;2.97;34.39
67377;BME280;54261;46.086;6.588;2023-02-14T05:49:25;94033.88;;;2.75;34.94
67377;BME280;54261;46.086;6.588;2023-02-14T05:54:27;94026.59;;;3.71;34.94
67377;BME280;54261;46.086;6.588;2023-02-14T05:59:29;94024.06;;;3.93;33.67
67377;BME280;54261;46.086;6.588;2023-02-14T06:04:31;94012.06;;;3.91;33.93
67377;BME280;54261;46.086;6.588;2023-02-14T06:09:33;94019.28;;;3.78;33.91
67377;BME280;54261;46.086;6.588;2023-02-14T06:14:35;94017.72;;;3.94;33.86
67377;BME280;54261;46.086;6.588;2023-02-14T06:19:36;94020.59;;;4.05;33.69
67377;BME280;54261;46.086;6.588;2023-02-14T06:24:38;94032.03;;;3.93;34.07
67377;BME280;54261;46.086;6.588;2023-02-14T06:29:40;94012.06;;;3.91;34.05
67377;BME280;54261;46.086;6.588;2023-02-14T06:34:42;94013.44;;;3.93;33.97
67377;BME280;54261;46.086;6.588;2023-02-14T06:39:43;94015.91;;;3.83;33.90
67377;BME280;54261;46.086;6.588;2023-02-14T06:44:45;94022.69;;;3.91;34.01
67377;BME280;54261;46.086;6.588;2023-02-14T06:49:47;94018.06;;;3.98;34.02
67377;BME280;54261;46.086;6.588;2023-02-14T06:54:49;94033.16;;;3.80;33.74
67377;BME280;54261;46.086;6.588;2023-02-14T06:59:50;94029.13;;;4.07;34.30
67377;BME280;54261;46.086;6.588;2023-02-14T07:04:52;94009.50;;;3.38;33.75
67377;BME280;54261;46.086;6.588;2023-02-14T07:09:54;94026.84;;;3.17;33.91
67377;BME280;54261;46.086;6.588;2023-02-14T07:14:56;94034.78;;;3.28;34.47
67377;BME280;54261;46.086;6.588;2023-02-14T07:19:58;94040.28;;;3.80;34.63
67377;BME280;54261;46.086;6.588;2023-02-14T07:24:59;94039.50;;;3.79;33.98
67377;BME280;54261;46.086;6.588;2023-02-14T07:30:02;94031.31;;;3.69;33.95
67377;BME280;54261;46.086;6.588;2023-02-14T07:35:06;94035.16;;;3.61;34.02
67377;BME280;54261;46.086;6.588;2023-02-14T07:40:09;94030.59;;;4.14;33.63
67377;BME280;54261;46.086;6.588;2023-02-14T07:45:15;94014.56;;;3.80;33.52
67377;BME280;54261;46.086;6.588;2023-02-14T07:50:22;94023.84;;;4.24;33.50
67377;BME280;54261;46.086;6.588;2023-02-14T07:55:24;94034.75;;;4.74;32.93
67377;BME280;54261;46.086;6.588;2023-02-14T08:00:26;94043.84;;;4.95;32.21
67377;BME280;54261;46.086;6.588;2023-02-14T08:05:28;94016.03;;;4.68;32.20
67377;BME280;54261;46.086;6.588;2023-02-14T08:10:30;94032.50;;;4.82;32.09
67377;BME280;54261;46.086;6.588;2023-02-14T08:15:33;94031.66;;;4.99;32.47
67377;BME280;54261;46.086;6.588;2023-02-14T08:20:54;94029.25;;;4.80;32.49
67377;BME280;54261;46.086;6.588;2023-02-14T08:25:56;94024.38;;;5.11;32.12
67377;BME280;54261;46.086;6.588;2023-02-14T08:30:58;94019.31;;;5.32;32.02
67377;BME280;54261;46.086;6.588;2023-02-14T08:36:01;94019.19;;;5.22;31.77
67377;BME280;54261;46.086;6.588;2023-02-14T08:41:03;94014.06;;;5.37;31.36
67377;BME280;54261;46.086;6.588;2023-02-14T08:46:09;94007.16;;;4.97;31.77
67377;BME280;54261;46.086;6.588;2023-02-14T08:51:13;93999.41;;;4.95;32.03
67377;BME280;54261;46.086;6.588;2023-02-14T08:56:15;94006.72;;;5.05;31.99
67377;BME280;54261;46.086;6.588;2023-02-14T09:01:17;94005.28;;;5.59;32.06
67377;BME280;54261;46.086;6.588;2023-02-14T09:06:19;93990.03;;;5.77;32.13
67377;BME280;54261;46.086;6.588;2023-02-14T09:11:22;94012.34;;;4.35;33.03
67377;BME280;54261;46.086;6.588;2023-02-14T09:16:25;94007.03;;;4.35;33.65
67377;BME280;54261;46.086;6.588;2023-02-14T09:21:27;94005.53;;;3.52;35.53
67377;BME280;54261;46.086;6.588;2023-02-14T09:26:29;94016.06;;;3.35;35.58
67377;BME280;54261;46.086;6.588;2023-02-14T09:31:31;94017.56;;;4.13;36.27
67377;BME280;54261;46.086;6.588;2023-02-14T09:36:33;94028.03;;;4.20;37.10
67377;BME280;54261;46.086;6.588;2023-02-14T09:52:31;94026.66;;;4.51;36.67
67377;BME280;54261;46.086;6.588;2023-02-14T09:57:39;93990.22;;;4.18;35.85
67377;BME280;54261;46.086;6.588;2023-02-14T10:03:13;94021.56;;;5.01;36.52
67377;BME280;54261;46.086;6.588;2023-02-14T10:13:38;94017.69;;;3.36;38.57
67377;BME280;54261;46.086;6.588;2023-02-14T10:18:45;94025.78;;;2.46;41.91
67377;BME280;54261;46.086;6.588;2023-02-14T10:23:57;94022.81;;;2.78;40.57
67377;BME280;54261;46.086;6.588;2023-02-14T10:29:02;94018.78;;;2.87;39.53
67377;BME280;54261;46.086;6.588;2023-02-14T10:34:14;94007.56;;;3.09;39.62
67377;BME280;54261;46.086;6.588;2023-02-14T10:50:15;93994.44;;;2.43;41.92
67377;BME280;54261;46.086;6.588;2023-02-14T10:55:24;94004.41;;;1.74;43.25
67377;BME280;54261;46.086;6.588;2023-02-14T11:00:36;93999.88;;;2.06;42.45
67377;BME280;54261;46.086;6.588;2023-02-14T11:05:45;93991.34;;;2.58;41.02
67377;BME280;54261;46.086;6.588;2023-02-14T11:10:48;93982.13;;;1.33;44.19
67377;BME280;54261;46.086;6.588;2023-02-14T11:15:50;93973.19;;;0.97;44.71
67377;BME280;54261;46.086;6.588;2023-02-14T11:20:59;93975.00;;;2.07;43.36
67377;BME280;54261;46.086;6.588;2023-02-14T11:26:06;93956.84;;;2.94;40.79
67377;BME280;54261;46.086;6.588;2023-02-14T11:31:09;93954.44;;;2.92;41.54
67377;BME280;54261;46.086;6.588;2023-02-14T11:36:13;93927.75;;;3.69;40.18
67377;BME280;54261;46.086;6.588;2023-02-14T11:41:18;93945.66;;;3.74;41.10
67377;BME280;54261;46.086;6.588;2023-02-14T11:51:30;93939.75;;;5.13;38.39
67377;BME280;54261;46.086;6.588;2023-02-14T12:01:47;93934.09;;;6.42;35.98
67377;BME280;54261;46.086;6.588;2023-02-14T12:06:49;93902.09;;;7.49;34.82
67377;BME280;54261;46.086;6.588;2023-02-14T12:12:15;93916.31;;;7.75;34.72
67377;BME280;54261;46.086;6.588;2023-02-14T12:17:29;93918.75;;;6.22;34.45
67377;BME280;54261;46.086;6.588;2023-02-14T12:22:36;93895.38;;;7.41;33.56
67377;BME280;54261;46.086;6.588;2023-02-14T12:27:57;93898.91;;;8.82;31.88
67377;BME280;54261;46.086;6.588;2023-02-14T12:33:02;93887.81;;;9.30;31.08
67377;BME280;54261;46.086;6.588;2023-02-14T12:38:18;93897.81;;;7.48;32.99
67377;BME280;54261;46.086;6.588;2023-02-14T12:43:52;93880.19;;;7.47;33.46
67377;BME280;54261;46.086;6.588;2023-02-14T12:49:13;93869.88;;;9.25;31.17
67377;BME280;54261;46.086;6.588;2023-02-14T12:54:45;93859.41;;;8.37;31.77
67377;BME280;54261;46.086;6.588;2023-02-14T13:20:50;93843.63;;;9.22;30.77
67377;BME280;54261;46.086;6.588;2023-02-14T13:31:19;93833.31;;;9.90;30.27
67377;BME280;54261;46.086;6.588;2023-02-14T13:36:22;93826.53;;;10.03;29.02
67377;BME280;54261;46.086;6.588;2023-02-14T13:41:26;93830.44;;;8.60;30.69
67377;BME280;54261;46.086;6.588;2023-02-14T13:51:48;93785.41;;;10.37;27.92
67377;BME280;54261;46.086;6.588;2023-02-14T13:56:50;93810.75;;;11.04;28.04
67377;BME280;54261;46.086;6.588;2023-02-14T14:01:52;93792.28;;;10.97;27.70
67377;BME280;54261;46.086;6.588;2023-02-14T14:17:27;93799.84;;;9.42;30.61
67377;BME280;54261;46.086;6.588;2023-02-14T14:22:29;93780.84;;;10.38;29.07
67377;BME280;54261;46.086;6.588;2023-02-14T14:27:40;93801.31;;;10.33;29.18
67377;BME280;54261;46.086;6.588;2023-02-14T14:32:42;93784.03;;;10.45;29.16
67377;BME280;54261;46.086;6.588;2023-02-14T14:37:56;93772.75;;;8.38;31.03
67377;BME280;54261;46.086;6.588;2023-02-14T14:48:46;93786.97;;;9.49;30.28
67377;BME280;54261;46.086;6.588;2023-02-14T14:54:13;93772.06;;;10.32;29.75
67377;BME280;54261;46.086;6.588;2023-02-14T14:59:18;93774.50;;;9.29;29.92
67377;BME280;54261;46.086;6.588;2023-02-14T15:04:33;93766.78;;;8.62;31.14
67377;BME280;54261;46.086;6.588;2023-02-14T15:09:36;93755.78;;;9.24;30.87
67377;BME280;54261;46.086;6.588;2023-02-14T15:14:40;93766.97;;;8.81;31.43
67377;BME280;54261;46.086;6.588;2023-02-14T15:19:49;93761.31;;;8.83;31.29
67377;BME280;54261;46.086;6.588;2023-02-14T15:24:52;93770.16;;;8.78;31.31
67377;BME280;54261;46.086;6.588;2023-02-14T15:35:02;93773.38;;;9.35;30.96
67377;BME280;54261;46.086;6.588;2023-02-14T15:40:06;93748.50;;;8.79;31.28
67377;BME280;54261;46.086;6.588;2023-02-14T15:50:50;93764.63;;;8.64;31.87
67377;BME280;54261;46.086;6.588;2023-02-14T15:55:54;93755.72;;;7.98;32.71
67377;BME280;54261;46.086;6.588;2023-02-14T16:01:02;93759.16;;;9.75;30.81
67377;BME280;54261;46.086;6.588;2023-02-14T16:06:05;93752.09;;;8.54;32.16
67377;BME280;54261;46.086;6.588;2023-02-14T16:11:32;93764.66;;;8.54;31.70
67377;BME280;54261;46.086;6.588;2023-02-14T16:16:55;93772.13;;;9.23;31.29
67377;BME280;54261;46.086;6.588;2023-02-14T16:21:57;93750.81;;;10.60;30.38
67377;BME280;54261;46.086;6.588;2023-02-14T16:26:59;93753.41;;;12.33;28.68
67377;BME280;54261;46.086;6.588;2023-02-14T16:32:12;93695.59;;;13.23;27.39
67377;BME280;54261;46.086;6.588;2023-02-14T16:37:21;93773.25;;;13.72;26.52
67377;BME280;54261;46.086;6.588;2023-02-14T16:42:24;93757.63;;;12.95;26.40
67377;BME280;54261;46.086;6.588;2023-02-14T16:47:25;93752.41;;;12.14;27.02
67377;BME280;54261;46.086;6.588;2023-02-14T16:52:28;93753.38;;;11.85;27.23
67377;BME280;54261;46.086;6.588;2023-02-14T16:57:40;93748.78;;;10.52;28.07
67377;BME280;54261;46.086;6.588;2023-02-14T17:02:43;93751.53;;;10.90;27.59
67377;BME280;54261;46.086;6.588;2023-02-14T17:07:45;93750.84;;;11.03;27.17
67377;BME280;54261;46.086;6.588;2023-02-14T17:12:47;93761.25;;;10.86;26.19
67377;BME280;54261;46.086;6.588;2023-02-14T17:17:55;93743.56;;;10.36;27.83
67377;BME280;54261;46.086;6.588;2023-02-14T17:22:59;93755.88;;;10.13;27.86
67377;BME280;54261;46.086;6.588;2023-02-14T17:28:01;93771.41;;;9.46;28.72
67377;BME280;54261;46.086;6.588;2023-02-14T17:33:03;93719.34;;;8.73;29.42
67377;BME280;54261;46.086;6.588;2023-02-14T17:38:05;93761.94;;;9.25;29.39
67377;BME280;54261;46.086;6.588;2023-02-14T17:43:07;93757.09;;;8.76;30.51
67377;BME280;54261;46.086;6.588;2023-02-14T17:48:09;93738.81;;;8.18;30.93
67377;BME280;54261;46.086;6.588;2023-02-14T17:53:12;93748.66;;;8.33;31.00
67377;BME280;54261;46.086;6.588;2023-02-14T17:58:14;93717.75;;;8.67;29.79
67377;BME280;54261;46.086;6.588;2023-02-14T18:03:15;93767.41;;;9.49;28.78
67377;BME280;54261;46.086;6.588;2023-02-14T18:08:17;93764.34;;;8.71;28.68
67377;BME280;54261;46.086;6.588;2023-02-14T18:13:24;93755.69;;;7.72;30.39
67377;BME280;54261;46.086;6.588;2023-02-14T18:18:26;93762.13;;;7.45;30.93
67377;BME280;54261;46.086;6.588;2023-02-14T18:23:29;93750.34;;;7.46;31.75
67377;BME280;54261;46.086;6.588;2023-02-14T18:28:33;93741.75;;;6.97;33.08
67377;BME280;54261;46.086;6.588;2023-02-14T18:33:36;93712.44;;;7.33;31.59
67377;BME280;54261;46.086;6.588;2023-02-14T18:38:43;93734.88;;;7.94;30.86
67377;BME280;54261;46.086;6.588;2023-02-14T18:43:46;93718.78;;;8.05;30.39
67377;BME280;54261;46.086;6.588;2023-02-14T18:48:50;93719.34;;;7.86;29.45
67377;BME280;54261;46.086;6.588;2023-02-14T18:53:52;93720.66;;;8.15;30.08
67377;BME280;54261;46.086;6.588;2023-02-14T18:58:58;93685.75;;;8.46;29.59
67377;BME280;54261;46.086;6.588;2023-02-14T19:04:00;93708.41;;;7.77;30.30
67377;BME280;54261;46.086;6.588;2023-02-14T19:09:07;93680.38;;;7.49;30.72
67377;BME280;54261;46.086;6.588;2023-02-14T19:14:09;93708.97;;;7.33;30.85
67377;BME280;54261;46.086;6.588;2023-02-14T19:19:11;93691.59;;;7.09;31.61
67377;BME280;54261;46.086;6.588;2023-02-14T19:24:14;93722.31;;;7.64;30.86
67377;BME280;54261;46.086;6.588;2023-02-14T19:29:19;93727.09;;;7.98;29.96
67377;BME280;54261;46.086;6.588;2023-02-14T19:34:23;93708.97;;;7.48;29.96
67377;BME280;54261;46.086;6.588;2023-02-14T19:39:29;93727.66;;;7.38;30.07
67377;BME280;54261;46.086;6.588;2023-02-14T19:44:31;93696.53;;;6.59;31.95
67377;BME280;54261;46.086;6.588;2023-02-14T19:49:33;93733.63;;;6.66;32.07
67377;BME280;54261;46.086;6.588;2023-02-14T19:54:38;93725.25;;;7.31;31.56
67377;BME280;54261;46.086;6.588;2023-02-14T19:59:40;93718.25;;;8.03;30.53
67377;BME280;54261;46.086;6.588;2023-02-14T20:04:42;93731.88;;;8.17;30.30
67377;BME280;54261;46.086;6.588;2023-02-14T20:09:44;93718.28;;;7.09;30.76
67377;BME280;54261;46.086;6.588;2023-02-14T20:14:46;93724.41;;;5.39;33.85
67377;BME280;54261;46.086;6.588;2023-02-14T20:19:52;93711.34;;;7.03;31.27
67377;BME280;54261;46.086;6.588;2023-02-14T20:24:55;93687.19;;;5.93;32.94
67377;BME280;54261;46.086;6.588;2023-02-14T20:29:57;93720.75;;;5.89;33.75
67377;BME280;54261;46.086;6.588;2023-02-14T20:34:59;93703.84;;;6.85;32.73
67377;BME280;54261;46.086;6.588;2023-02-14T20:40:01;93717.75;;;7.07;32.11
67377;BME280;54261;46.086;6.588;2023-02-14T20:45:04;93727.09;;;7.15;32.12
67377;BME280;54261;46.086;6.588;2023-02-14T20:50:06;93729.91;;;6.08;32.60
67377;BME280;54261;46.086;6.588;2023-02-14T20:55:08;93723.63;;;6.30;32.94
67377;BME280;54261;46.086;6.588;2023-02-14T21:00:10;93684.66;;;5.65;34.02
67377;BME280;54261;46.086;6.588;2023-02-14T21:05:12;93725.16;;;6.10;33.26
67377;BME280;54261;46.086;6.588;2023-02-14T21:10:18;93722.34;;;5.47;34.05
67377;BME280;54261;46.086;6.588;2023-02-14T21:15:20;93719.22;;;4.95;35.16
67377;BME280;54261;46.086;6.588;2023-02-14T21:20:22;93716.13;;;6.22;33.71
67377;BME280;54261;46.086;6.588;2023-02-14T21:25:24;93713.84;;;6.46;33.03
67377;BME280;54261;46.086;6.588;2023-02-14T21:30:27;93706.31;;;6.33;33.49
67377;BME280;54261;46.086;6.588;2023-02-14T21:35:34;93675.47;;;5.89;33.34
67377;BME280;54261;46.086;6.588;2023-02-14T21:40:36;93709.00;;;6.33;33.35
67377;BME280;54261;46.086;6.588;2023-02-14T21:45:38;93699.94;;;6.39;33.12
67377;BME280;54261;46.086;6.588;2023-02-14T21:51:09;93704.25;;;6.50;32.16
67377;BME280;54261;46.086;6.588;2023-02-14T21:56:12;93691.75;;;5.92;32.98
67377;BME280;54261;46.086;6.588;2023-02-14T22:01:26;93707.63;;;6.25;32.76
67377;BME280;54261;46.086;6.588;2023-02-14T22:06:29;93688.53;;;5.47;32.59
67377;BME280;54261;46.086;6.588;2023-02-14T22:11:30;93703.91;;;5.07;34.19
67377;BME280;54261;46.086;6.588;2023-02-14T22:16:32;93698.59;;;3.68;36.49
67377;BME280;54261;46.086;6.588;2023-02-14T22:21:37;93701.34;;;5.50;33.93
67377;BME280;54261;46.086;6.588;2023-02-14T22:26:39;93677.34;;;5.45;33.55
67377;BME280;54261;46.086;6.588;2023-02-14T22:31:43;93680.31;;;6.02;32.16
67377;BME280;54261;46.086;6.588;2023-02-14T22:36:46;93682.00;;;6.19;32.20
67377;BME280;54261;46.086;6.588;2023-02-14T22:41:49;93631.56;;;5.53;33.06
67377;BME280;54261;46.086;6.588;2023-02-14T22:46:51;93666.53;;;5.62;32.92
67377;BME280;54261;46.086;6.588;2023-02-14T22:51:53;93669.31;;;5.88;33.10
67377;BME280;54261;46.086;6.588;2023-02-14T22:56:55;93664.31;;;5.97;32.96
67377;BME280;54261;46.086;6.588;2023-02-14T23:01:57;93657.19;;;5.60;33.12
67377;BME280;54261;46.086;6.588;2023-02-14T23:06:59;93668.31;;;5.94;32.55
67377;BME280;54261;46.086;6.588;2023-02-14T23:12:01;93669.84;;;5.42;33.86
67377;BME280;54261;46.086;6.588;2023-02-14T23:17:03;93647.19;;;5.39;33.47
67377;BME280;54261;46.086;6.588;2023-02-14T23:27:42;93662.94;;;5.08;34.70
67377;BME280;54261;46.086;6.588;2023-02-14T23:32:45;93662.03;;;4.15;35.27
67377;BME280;54261;46.086;6.588;2023-02-14T23:37:46;93657.59;;;4.76;35.55
67377;BME280;54261;46.086;6.588;2023-02-14T23:42:48;93662.84;;;4.98;33.43
67377;BME280;54261;46.086;6.588;2023-02-14T23:47:50;93667.31;;;4.92;33.35
67377;BME280;54261;46.086;6.588;2023-02-14T23:52:52;93661.16;;;4.09;35.17
67377;BME280;54261;46.086;6.588;2023-02-14T23:57:54;93662.41;;;3.62;36.09
